| time (UTC) | temp C | wind direction | speed KPH | gust KPH | rain 1hr cm | rain 24hr cm | rain mn cm | humidity % | barometer mb |
| 20260504141210 | 19 | 156 | 1.6 | 4.8 | 0.00 | 0.00 | 0.00 | 46 | 997.2 |
| 20260504140209 | 19 | 144 | 1.6 | 6.4 | 0.00 | 0.00 | 0.00 | 47 | 997.5 |
| 20260504110709 | 7 | 75 | 1.6 | 3.2 | 0.00 | 0.00 | 0.00 | 82 | 999.4 |
| 20260504100610 | 8 | 291 | 0.0 | 4.8 | 0.00 | 0.00 | 0.00 | 80 | 1000.0 |
| 20260504081300 | 8 | 113 | 1.6 | 4.8 | 0.00 | 0.00 | 0.00 | 77 | 1000.7 |
| 20260504080250 | 8 | 111 | 4.8 | 6.4 | 0.00 | 0.00 | 0.00 | 75 | 1001.0 |
| 20260504070110 | 9 | 78 | 0.0 | 0.0 | 0.00 | 0.00 | 0.00 | 69 | 1001.3 |
| 20260504045811 | 13 | 107 | 1.6 | 3.2 | 0.00 | 0.08 | 0.00 | 53 | 1002.0 |
| 20260504044749 | 14 | 144 | 1.6 | 3.2 | 0.00 | 0.08 | 0.00 | 53 | 1002.2 |
| 20260504043734 | 13 | 157 | 0.0 | 3.2 | 0.00 | 0.08 | 0.00 | 53 | 1002.0 |
| 20260504042710 | 13 | 143 | 3.2 | 3.2 | 0.00 | 0.08 | 0.00 | 54 | 1002.2 |
| 20260504041640 | 13 | 141 | 1.6 | 3.2 | 0.00 | 0.08 | 0.00 | 56 | 1002.2 |
| 20260504040639 | 13 | 62 | 0.0 | 1.6 | 0.00 | 0.08 | 0.00 | 56 | 1002.2 |
| 20260504035620 | 13 | 140 | 1.6 | 1.6 | 0.00 | 0.08 | 0.00 | 57 | 1002.2 |
| 20260504034609 | 13 | 103 | 0.0 | 1.6 | 0.00 | 0.08 | 0.00 | 56 | 1002.4 |
| 20260504033610 | 14 | 142 | 0.0 | 1.6 | 0.00 | 0.08 | 0.00 | 54 | 1002.4 |
| 20260504032540 | 14 | 134 | 1.6 | 1.6 | 0.00 | 0.08 | 0.00 | 54 | 1002.2 |
| 20260504031519 | 14 | 125 | 1.6 | 1.6 | 0.00 | 0.08 | 0.00 | 53 | 1002.3 |
| 20260504030509 | 15 | 132 | 1.6 | 3.2 | 0.00 | 0.08 | 0.00 | 51 | 1002.2 |
| 20260504025439 | 15 | 148 | 0.0 | 3.2 | 0.00 | 0.08 | 0.00 | 50 | 1002.1 |
| 20260504024419 | 16 | 166 | 1.6 | 1.6 | 0.00 | 0.08 | 0.00 | 50 | 1001.8 |
| 20260504023409 | 16 | 143 | 1.6 | 3.2 | 0.00 | 0.08 | 0.00 | 50 | 1001.9 |
| 20260504022424 | 16 | 141 | 1.6 | 3.2 | 0.00 | 0.08 | 0.00 | 49 | 1001.9 |
| 20260504021346 | 16 | 157 | 0.0 | 1.6 | 0.00 | 0.08 | 0.00 | 49 | 1001.6 |
| 20260504020340 | 16 | 137 | 0.0 | 1.6 | 0.00 | 0.08 | 0.00 | 49 | 1001.4 |
| 20260504015319 | 17 | 151 | 1.6 | 3.2 | 0.00 | 0.08 | 0.00 | 48 | 1001.4 |
| 20260504014325 | 17 | 228 | 0.0 | 1.6 | 0.00 | 0.08 | 0.00 | 46 | 1001.4 |
| 20260504013250 | 17 | 153 | 1.6 | 3.2 | 0.00 | 0.08 | 0.00 | 46 | 1001.3 |
| 20260504012219 | 18 | 142 | 0.0 | 1.6 | 0.00 | 0.08 | 0.00 | 45 | 1001.2 |
| 20260504011210 | 18 | 205 | 0.0 | 0.0 | 0.00 | 0.08 | 0.00 | 43 | 1000.8 |
| 20260504010149 | 19 | 157 | 0.0 | 3.2 | 0.00 | 0.08 | 0.00 | 41 | 1000.8 |
| 20260504005140 | 20 | 117 | 0.0 | 1.6 | 0.00 | 0.08 | 0.00 | 40 | 1000.7 |
| 20260504004120 | 20 | 211 | 0.0 | 3.2 | 0.00 | 0.08 | 0.00 | 39 | 1000.5 |
| 20260504003112 | 21 | 115 | 1.6 | 3.2 | 0.00 | 0.08 | 0.00 | 38 | 1000.5 |
| 20260504002110 | 21 | 192 | 3.2 | 8.0 | 0.00 | 0.08 | 0.00 | 38 | 1000.5 |
| 20260504001050 | 22 | 172 | 4.8 | 4.8 | 0.00 | 0.08 | 0.00 | 37 | 1000.4 |
| 20260504000040 | 22 | 203 | 1.6 | 3.2 | 0.00 | 0.08 | 0.00 | 37 | 1000.6 |
| 20260503235034 | 22 | 199 | 1.6 | 3.2 | 0.00 | 0.08 | 0.00 | 36 | 1000.3 |
| 20260503234010 | 22 | 210 | 0.0 | 6.4 | 0.00 | 0.08 | 0.00 | 36 | 1000.5 |
| 20260503232949 | 23 | 205 | 3.2 | 6.4 | 0.00 | 0.08 | 0.00 | 35 | 1000.3 |
| 20260503231940 | 22 | 164 | 3.2 | 3.2 | 0.00 | 0.08 | 0.00 | 36 | 1000.6 |
| 20260503230955 | 22 | 200 | 3.2 | 6.4 | 0.00 | 0.08 | 0.00 | 37 | 1000.6 |
| 20260503225920 | 22 | 173 | 3.2 | 8.0 | 0.00 | 0.08 | 0.00 | 37 | 1000.9 |
| 20260503224932 | 22 | 174 | 8.0 | 11.3 | 0.00 | 0.08 | 0.00 | 37 | 1000.7 |
| 20260503223910 | 23 | 193 | 6.4 | 9.7 | 0.00 | 0.08 | 0.00 | 36 | 1000.4 |
| 20260503222909 | 22 | 195 | 4.8 | 8.0 | 0.00 | 0.08 | 0.00 | 36 | 1000.9 |
| 20260503221849 | 23 | 149 | 4.8 | 8.0 | 0.00 | 0.08 | 0.00 | 36 | 1000.5 |
| 20260503220820 | 23 | 243 | 1.6 | 8.0 | 0.00 | 0.08 | 0.00 | 35 | 1000.7 |
| 20260503215810 | 23 | 198 | 3.2 | 6.4 | 0.00 | 0.08 | 0.00 | 36 | 1000.5 |
| 20260503214810 | 23 | 255 | 3.2 | 14.5 | 0.00 | 0.08 | 0.00 | 34 | 1000.6 |
| 20260503213740 | 23 | 311 | 0.0 | 8.0 | 0.00 | 0.08 | 0.00 | 35 | 1000.6 |
| 20260503212729 | 23 | 281 | 1.6 | 9.7 | 0.00 | 0.08 | 0.00 | 33 | 1000.6 |
| 20260503211735 | 23 | 167 | 1.6 | 8.0 | 0.00 | 0.08 | 0.00 | 35 | 1000.6 |
| 20260503210710 | 23 | 209 | 4.8 | 8.0 | 0.00 | 0.08 | 0.00 | 35 | 1000.9 |
| 20260503205710 | 22 | 282 | 3.2 | 9.7 | 0.00 | 0.08 | 0.00 | 35 | 1001.1 |
| 20260503204709 | 23 | 145 | 4.8 | 8.0 | 0.00 | 0.08 | 0.00 | 34 | 1001.2 |
| 20260503203649 | 23 | 185 | 11.3 | 11.3 | 0.00 | 0.08 | 0.00 | 33 | 1001.2 |
| 20260503202639 | 23 | 43 | 3.2 | 8.0 | 0.00 | 0.08 | 0.00 | 34 | 1001.3 |
| 20260503201620 | 23 | 116 | 0.0 | 9.7 | 0.00 | 0.08 | 0.00 | 33 | 1001.6 |
| 20260503200609 | 23 | 199 | 4.8 | 9.7 | 0.00 | 0.08 | 0.00 | 36 | 1001.7 |
| 20260503195540 | 22 | 173 | 4.8 | 9.7 | 0.00 | 0.08 | 0.00 | 35 | 1001.7 |
| 20260503194519 | 22 | 199 | 8.0 | 11.3 | 0.00 | 0.08 | 0.00 | 35 | 1002.0 |
| 20260503193510 | 22 | 195 | 4.8 | 6.4 | 0.00 | 0.08 | 0.00 | 37 | 1002.1 |
| 20260503192511 | 21 | 320 | 4.8 | 8.0 | 0.00 | 0.08 | 0.00 | 37 | 1002.0 |
| 20260503191449 | 21 | 314 | 0.0 | 9.7 | 0.00 | 0.08 | 0.00 | 37 | 1002.4 |
| 20260503190439 | 21 | 185 | 8.0 | 9.7 | 0.00 | 0.08 | 0.00 | 36 | 1002.4 |
| 20260503185440 | 21 | 154 | 6.4 | 6.4 | 0.00 | 0.08 | 0.00 | 38 | 1002.3 |
| 20260503184420 | 22 | 213 | 6.4 | 6.4 | 0.00 | 0.08 | 0.00 | 37 | 1002.5 |
| 20260503183410 | 21 | 131 | 3.2 | 6.4 | 0.00 | 0.08 | 0.00 | 38 | 1002.8 |
| 20260503182410 | 21 | 230 | 3.2 | 9.7 | 0.00 | 0.08 | 0.00 | 38 | 1003.1 |
| 20260503181346 | 20 | 218 | 3.2 | 11.3 | 0.00 | 0.08 | 0.00 | 37 | 1003.1 |
| 20260503180335 | 20 | 164 | 1.6 | 11.3 | 0.00 | 0.08 | 0.00 | 39 | 1003.1 |
| 20260503175325 | 20 | 213 | 14.5 | 16.1 | 0.00 | 0.08 | 0.00 | 39 | 1003.5 |
| 20260503174250 | 19 | 195 | 1.6 | 6.4 | 0.00 | 0.08 | 0.00 | 40 | 1003.7 |
| 20260503173220 | 19 | 194 | 3.2 | 8.0 | 0.00 | 0.08 | 0.00 | 40 | 1004.1 |
| 20260503172210 | 18 | 146 | 6.4 | 8.0 | 0.00 | 0.08 | 0.00 | 40 | 1004.2 |
| 20260503171205 | 18 | 287 | 4.8 | 9.7 | 0.00 | 0.08 | 0.00 | 40 | 1004.2 |
| 20260503170119 | 18 | 161 | 1.6 | 12.9 | 0.00 | 0.08 | 0.00 | 40 | 1004.5 |
| 20260503150950 | 11 | 249 | 3.2 | 6.4 | 0.00 | 0.05 | 0.00 | 60 | 1006.5 |